createdAt,value
2019-05-06T00:00:19.104Z,99.90
2019-05-06T00:03:02.554Z,99.90
2019-05-06T00:05:38.336Z,99.90
2019-05-06T00:08:09.575Z,99.90
2019-05-06T00:10:39.800Z,99.90
2019-05-06T00:13:09.873Z,99.90
2019-05-06T00:15:41.020Z,99.90
2019-05-06T00:18:11.097Z,99.90
2019-05-06T00:20:41.183Z,99.90
2019-05-06T00:23:25.373Z,99.90
2019-05-06T00:26:04.134Z,99.90
2019-05-06T00:28:39.405Z,99.90
2019-05-06T00:31:16.859Z,99.90
2019-05-06T00:33:47.021Z,99.90
2019-05-06T00:36:17.209Z,99.90
2019-05-06T00:38:49.915Z,99.90
2019-05-06T00:41:24.852Z,99.90
2019-05-06T00:43:54.904Z,99.90
2019-05-06T00:46:25.005Z,99.90
2019-05-06T00:48:56.000Z,99.90
2019-05-06T00:51:26.148Z,99.90
2019-05-06T00:53:58.812Z,99.90
2019-05-06T00:56:29.844Z,99.90
2019-05-06T00:59:00.902Z,99.90
2019-05-06T01:01:34.236Z,99.90
2019-05-06T01:04:14.046Z,99.90
2019-05-06T01:06:54.285Z,99.90
2019-05-06T01:09:30.552Z,99.90
2019-05-06T01:12:03.640Z,99.90
2019-05-06T01:14:39.625Z,99.90
2019-05-06T01:17:09.801Z,99.90
2019-05-06T01:19:46.447Z,99.90
2019-05-06T01:22:34.493Z,99.90
2019-05-06T01:25:14.464Z,99.90
2019-05-06T01:27:46.532Z,99.90
2019-05-06T01:30:24.329Z,99.90
2019-05-06T01:32:57.540Z,99.90
2019-05-06T01:35:29.584Z,99.90
2019-05-06T01:38:21.296Z,99.90
2019-05-06T01:41:10.170Z,99.90
2019-05-06T01:43:43.809Z,99.90
2019-05-06T01:46:14.067Z,99.90
2019-05-06T01:48:48.948Z,99.90
2019-05-06T01:51:44.076Z,99.90
2019-05-06T01:54:20.952Z,99.90
2019-05-06T01:56:56.940Z,99.90
2019-05-06T01:59:27.298Z,99.90
2019-05-06T02:02:00.974Z,99.90
2019-05-06T02:04:30.155Z,99.90
2019-05-06T02:07:03.798Z,99.90
2019-05-06T02:09:36.062Z,99.90
2019-05-06T02:12:13.829Z,99.90
2019-05-06T02:14:43.889Z,99.90
2019-05-06T02:17:14.520Z,99.90
2019-05-06T02:19:44.752Z,99.90
2019-05-06T02:22:36.496Z,99.90
2019-05-06T02:25:09.536Z,99.90
2019-05-06T02:27:44.569Z,99.90
2019-05-06T02:30:18.049Z,99.90
2019-05-06T02:32:59.012Z,99.90
2019-05-06T02:35:36.592Z,99.90
2019-05-06T02:38:11.382Z,99.90
2019-05-06T02:40:46.577Z,99.90
2019-05-06T02:43:25.942Z,99.90
2019-05-06T02:45:57.998Z,99.90
2019-05-06T02:48:38.202Z,99.90
2019-05-06T02:51:13.360Z,99.90
2019-05-06T02:53:44.636Z,99.90
2019-05-06T02:56:23.985Z,99.90
2019-05-06T02:59:04.111Z,99.90
2019-05-06T03:01:35.415Z,99.90
2019-05-06T03:04:06.409Z,99.90
2019-05-06T03:06:46.390Z,99.90
2019-05-06T03:09:16.474Z,99.90
2019-05-06T03:11:56.229Z,99.90
2019-05-06T03:14:34.604Z,99.90
2019-05-06T03:17:07.741Z,99.90
2019-05-06T03:19:39.464Z,99.90
2019-05-06T03:22:17.044Z,99.90
2019-05-06T03:24:50.681Z,99.90
2019-05-06T03:27:32.881Z,99.90
2019-05-06T03:30:08.875Z,99.90
2019-05-06T03:33:14.181Z,99.90
2019-05-06T03:35:31.365Z,99.90
2019-05-06T03:37:53.431Z,99.90
2019-05-06T03:40:27.762Z,99.90
2019-05-06T03:42:58.816Z,99.90
2019-05-06T03:45:42.868Z,99.90
2019-05-06T03:48:23.792Z,99.90
2019-05-06T03:50:58.732Z,99.90
2019-05-06T03:53:33.374Z,99.90
2019-05-06T03:56:09.873Z,99.90
2019-05-06T03:58:43.489Z,99.90
2019-05-06T04:01:15.233Z,99.90
2019-05-06T04:03:52.322Z,99.90
2019-05-06T04:06:25.798Z,99.90
2019-05-06T04:08:56.747Z,99.90
2019-05-06T04:11:28.059Z,99.90
2019-05-06T04:14:02.769Z,99.90
2019-05-06T04:16:44.463Z,99.90
2019-05-06T04:19:17.810Z,99.90
2019-05-06T04:21:49.649Z,99.90
2019-05-06T04:24:38.025Z,99.90
2019-05-06T04:27:33.910Z,99.90
2019-05-06T04:30:07.757Z,99.90
2019-05-06T04:32:43.169Z,99.90
2019-05-06T04:35:23.037Z,99.90
2019-05-06T04:37:54.084Z,99.90
2019-05-06T04:40:24.286Z,99.90
2019-05-06T04:42:55.318Z,99.90
2019-05-06T04:45:28.481Z,99.90
2019-05-06T04:47:58.643Z,99.90
2019-05-06T04:50:28.793Z,99.90
2019-05-06T04:53:05.682Z,99.90
2019-05-06T04:55:37.524Z,99.90
2019-05-06T04:58:13.506Z,99.90
2019-05-06T05:00:44.949Z,99.90
2019-05-06T05:03:16.100Z,99.90
2019-05-06T05:05:54.041Z,99.90
2019-05-06T05:08:38.519Z,99.90
2019-05-06T05:11:29.519Z,99.90
2019-05-06T05:14:02.868Z,99.90
2019-05-06T05:16:54.032Z,99.90
2019-05-06T05:19:33.760Z,99.90
2019-05-06T05:22:07.904Z,99.90
2019-05-06T05:24:45.884Z,99.90
2019-05-06T05:27:17.206Z,99.90
2019-05-06T05:29:47.358Z,99.90
2019-05-06T05:32:19.505Z,99.90
2019-05-06T05:34:58.672Z,99.90
2019-05-06T05:37:28.749Z,99.90
2019-05-06T05:39:59.728Z,99.90
2019-05-06T05:42:32.830Z,99.90
2019-05-06T05:45:08.506Z,99.90
2019-05-06T05:47:38.756Z,99.90
2019-05-06T05:50:13.157Z,99.90
2019-05-06T05:52:43.584Z,99.90
2019-05-06T05:55:22.065Z,99.90
2019-05-06T05:57:53.132Z,99.90
2019-05-06T06:00:35.761Z,99.90
2019-05-06T06:03:07.250Z,99.90
2019-05-06T06:05:48.786Z,99.90
2019-05-06T06:08:27.125Z,99.90
2019-05-06T06:11:13.052Z,99.90
2019-05-06T06:13:56.125Z,99.90
2019-05-06T06:16:54.941Z,99.90
2019-05-06T06:19:36.199Z,99.90
2019-05-06T06:22:08.133Z,99.90
2019-05-06T06:24:38.276Z,99.90
2019-05-06T06:27:09.249Z,99.90
2019-05-06T06:29:54.497Z,99.90
2019-05-06T06:32:28.425Z,99.90
2019-05-06T06:35:14.194Z,99.90
2019-05-06T06:37:44.013Z,99.90
2019-05-06T06:40:17.893Z,99.90
2019-05-06T06:42:55.651Z,99.90
2019-05-06T06:45:26.717Z,99.90
2019-05-06T06:48:06.707Z,99.90
2019-05-06T06:50:36.790Z,99.90
2019-05-06T06:53:06.871Z,96.40
2019-05-06T06:55:42.575Z,88.50
2019-05-06T06:58:20.005Z,92.60
2019-05-06T07:01:13.245Z,88.90
2019-05-06T07:03:52.793Z,88.40
2019-05-06T07:06:27.646Z,87.20
2019-05-06T07:08:57.740Z,85.50
2019-05-06T07:11:28.801Z,73.90
2019-05-06T07:13:59.693Z,75.80
2019-05-06T07:16:32.772Z,69.10
2019-05-06T07:19:03.788Z,69.50
2019-05-06T07:21:39.688Z,65.70
2019-05-06T07:24:10.125Z,65.70
2019-05-06T07:26:46.514Z,64.80
2019-05-06T07:29:26.776Z,65.20
2019-05-06T07:31:59.302Z,64.00
2019-05-06T07:34:29.381Z,66.50
2019-05-06T07:36:59.525Z,65.90
2019-05-06T07:39:43.073Z,64.40
2019-05-06T07:42:26.317Z,63.90
2019-05-06T07:44:58.053Z,62.80
2019-05-06T07:47:35.633Z,60.70
2019-05-06T07:50:07.733Z,61.80
2019-05-06T07:52:38.793Z,62.90
2019-05-06T07:55:11.996Z,61.00
2019-05-06T07:57:42.418Z,62.30
2019-05-06T08:00:25.540Z,60.80
2019-05-06T08:03:09.500Z,58.60
2019-05-06T08:05:54.822Z,60.20
2019-05-06T08:08:26.257Z,59.40
2019-05-06T08:10:56.337Z,58.10
2019-05-06T08:13:26.426Z,56.40
2019-05-06T08:15:57.581Z,57.00
2019-05-06T08:18:28.637Z,56.00
2019-05-06T08:21:02.567Z,53.60
2019-05-06T08:23:43.042Z,54.40
2019-05-06T08:26:17.271Z,54.00
2019-05-06T08:28:44.981Z,52.20
2019-05-06T08:31:27.405Z,49.90
2019-05-06T08:33:58.429Z,47.60
2019-05-06T08:36:42.636Z,46.10
2019-05-06T08:39:14.076Z,45.60
2019-05-06T08:41:45.056Z,44.90
2019-05-06T08:44:17.122Z,45.70
2019-05-06T08:46:53.330Z,45.80
2019-05-06T08:49:24.441Z,45.50
2019-05-06T08:52:02.238Z,47.30
2019-05-06T08:54:34.370Z,46.70
2019-05-06T08:57:06.529Z,46.60
2019-05-06T08:59:38.521Z,48.70
2019-05-06T09:02:32.331Z,48.60
2019-05-06T09:05:12.244Z,49.00
2019-05-06T09:07:45.973Z,49.70
2019-05-06T09:10:16.341Z,49.70
2019-05-06T09:12:52.509Z,50.30
2019-05-06T09:15:23.590Z,50.40
2019-05-06T09:18:12.435Z,50.90
2019-05-06T09:20:54.426Z,51.50
2019-05-06T09:23:27.772Z,51.20
2019-05-06T09:25:57.872Z,52.80
2019-05-06T09:28:34.665Z,52.60
2019-05-06T09:31:12.694Z,52.10
2019-05-06T09:33:55.709Z,51.60
2019-05-06T09:36:39.816Z,51.30
2019-05-06T09:39:02.770Z,54.10
2019-05-06T09:41:32.837Z,56.60
2019-05-06T09:44:03.200Z,56.70
2019-05-06T09:46:33.428Z,56.40
2019-05-06T09:49:06.098Z,57.30
2019-05-06T09:51:37.137Z,56.60
2019-05-06T09:54:19.725Z,56.30
2019-05-06T09:57:04.578Z,56.90
2019-05-06T09:59:34.720Z,56.60
2019-05-06T10:02:05.065Z,57.00
2019-05-06T10:04:37.160Z,56.60
2019-05-06T10:07:13.540Z,58.30
2019-05-06T10:09:54.781Z,60.50
2019-05-06T10:12:32.747Z,60.90
2019-05-06T10:15:03.148Z,61.20
2019-05-06T10:17:33.473Z,61.10
2019-05-06T10:20:12.989Z,58.60
2019-05-06T10:22:44.093Z,56.10
2019-05-06T10:25:16.221Z,54.50
2019-05-06T10:27:48.950Z,53.70
2019-05-06T10:30:22.454Z,55.70
2019-05-06T10:32:57.765Z,55.10
2019-05-06T10:35:29.721Z,54.90
2019-05-06T10:38:27.389Z,55.40
2019-05-06T10:41:06.677Z,53.70
2019-05-06T10:43:58.805Z,51.70
2019-05-06T10:46:28.870Z,51.10
2019-05-06T10:49:02.431Z,48.80
2019-05-06T10:51:42.756Z,49.60
2019-05-06T10:54:19.945Z,45.90
2019-05-06T10:56:57.323Z,45.00
2019-05-06T10:59:27.675Z,44.00
2019-05-06T11:01:59.409Z,42.50
2019-05-06T11:04:29.513Z,41.30
2019-05-06T11:07:00.835Z,42.10
2019-05-06T11:09:34.797Z,44.20
2019-05-06T11:12:04.885Z,43.70
2019-05-06T11:14:35.938Z,43.00
2019-05-06T11:17:19.149Z,43.10
2019-05-06T11:19:53.318Z,41.10
2019-05-06T11:22:24.873Z,37.30
2019-05-06T11:24:56.913Z,36.70
2019-05-06T11:27:32.095Z,37.30
2019-05-06T11:30:02.335Z,37.10
2019-05-06T11:32:44.454Z,33.50
2019-05-06T11:35:28.435Z,31.40
2019-05-06T11:38:02.823Z,30.40
2019-05-06T11:40:33.306Z,30.00
2019-05-06T11:43:05.333Z,28.60
2019-05-06T11:45:35.414Z,28.50
2019-05-06T11:48:05.574Z,28.00
2019-05-06T11:50:35.673Z,27.70
2019-05-06T11:53:08.910Z,27.10
2019-05-06T11:55:39.994Z,27.10
2019-05-06T11:58:27.519Z,27.70
2019-05-06T12:01:13.460Z,28.80
2019-05-06T12:03:43.634Z,28.70
2019-05-06T12:06:13.717Z,26.70
2019-05-06T12:08:49.681Z,26.50
2019-05-06T12:11:19.914Z,26.70
2019-05-06T12:13:53.189Z,27.60
2019-05-06T12:16:26.057Z,27.40
2019-05-06T12:18:54.731Z,27.30
2019-05-06T12:21:27.857Z,26.20
2019-05-06T12:23:58.930Z,27.40
2019-05-06T12:26:32.038Z,28.90
2019-05-06T12:29:02.330Z,29.40
2019-05-06T12:31:32.989Z,29.50
2019-05-06T12:34:11.338Z,30.50
2019-05-06T12:36:39.897Z,31.90
2019-05-06T12:39:18.653Z,33.00
2019-05-06T12:42:11.581Z,34.10
2019-05-06T12:44:43.357Z,35.80
2019-05-06T12:47:18.194Z,38.10
2019-05-06T12:49:57.350Z,39.70
2019-05-06T12:52:27.445Z,42.40
2019-05-06T12:55:14.788Z,43.70
2019-05-06T12:57:30.250Z,43.70
2019-05-06T13:00:03.122Z,44.20
2019-05-06T13:02:32.839Z,45.30
2019-05-06T13:05:06.330Z,46.00
2019-05-06T13:07:38.121Z,46.20
2019-05-06T13:10:08.681Z,46.20
2019-05-06T13:12:45.399Z,46.00
2019-05-06T13:15:15.506Z,46.60
2019-05-06T13:17:46.562Z,44.80
2019-05-06T13:20:35.262Z,44.70
2019-05-06T13:23:25.775Z,45.40
2019-05-06T13:25:57.811Z,45.70
2019-05-06T13:28:49.293Z,45.20
2019-05-06T13:31:21.835Z,43.80
2019-05-06T13:33:55.463Z,43.20
2019-05-06T13:36:28.152Z,40.70
2019-05-06T13:39:13.721Z,40.20
2019-05-06T13:41:47.981Z,39.00
2019-05-06T13:44:18.174Z,39.00
2019-05-06T13:46:49.890Z,38.80
2019-05-06T13:49:22.757Z,40.10
2019-05-06T13:51:54.725Z,40.90
2019-05-06T13:54:34.377Z,40.70
2019-05-06T13:57:07.710Z,40.80
2019-05-06T13:59:38.754Z,40.80
2019-05-06T14:02:16.619Z,40.10
2019-05-06T14:04:52.767Z,41.00
2019-05-06T14:07:24.661Z,41.10
2019-05-06T14:09:54.784Z,40.30
2019-05-06T14:12:24.869Z,40.30
2019-05-06T14:14:54.966Z,39.00
2019-05-06T14:17:25.058Z,39.00
2019-05-06T14:19:56.147Z,39.80
2019-05-06T14:22:28.142Z,40.30
2019-05-06T14:25:18.081Z,38.60
2019-05-06T14:28:03.143Z,39.00
2019-05-06T14:30:42.976Z,39.20
2019-05-06T14:33:17.475Z,37.00
2019-05-06T14:35:47.605Z,36.40
2019-05-06T14:38:24.596Z,35.00
2019-05-06T14:41:08.521Z,35.70
2019-05-06T14:43:42.682Z,35.60
2019-05-06T14:46:14.454Z,33.70
2019-05-06T14:48:44.485Z,34.70
2019-05-06T14:51:14.722Z,36.80
2019-05-06T14:53:44.867Z,38.00
2019-05-06T14:56:16.618Z,38.60
2019-05-06T14:59:04.217Z,39.10
2019-05-06T15:01:45.097Z,40.10
2019-05-06T15:04:17.097Z,38.60
2019-05-06T15:06:48.102Z,39.10
2019-05-06T15:09:18.264Z,39.70
2019-05-06T15:12:02.345Z,38.70
2019-05-06T15:14:36.445Z,35.60
2019-05-06T15:17:08.525Z,36.20
2019-05-06T15:19:44.849Z,37.50
2019-05-06T15:22:15.166Z,37.80
2019-05-06T15:24:57.367Z,37.20
2019-05-06T15:27:27.449Z,37.20
2019-05-06T15:30:22.846Z,37.90
2019-05-06T15:33:15.110Z,38.00
2019-05-06T15:35:58.449Z,38.80
2019-05-06T15:38:30.309Z,40.20
2019-05-06T15:41:00.404Z,40.80
2019-05-06T15:43:35.551Z,41.30
2019-05-06T15:46:15.217Z,41.30
2019-05-06T15:48:45.336Z,41.90
2019-05-06T15:51:22.327Z,43.20
2019-05-06T15:53:54.129Z,43.80
2019-05-06T15:56:33.237Z,44.50
2019-05-06T15:59:04.582Z,45.30
2019-05-06T16:01:43.159Z,45.30
2019-05-06T16:04:18.367Z,46.90
2019-05-06T16:06:48.489Z,46.60
2019-05-06T16:09:18.577Z,46.80
2019-05-06T16:11:57.961Z,48.00
2019-05-06T16:14:28.970Z,49.50
2019-05-06T16:16:59.061Z,48.20
2019-05-06T16:19:33.630Z,48.20
2019-05-06T16:22:04.839Z,48.00
2019-05-06T16:24:43.529Z,48.50
2019-05-06T16:27:16.712Z,49.10
2019-05-06T16:29:46.855Z,50.70
2019-05-06T16:32:18.848Z,51.20
2019-05-06T16:34:48.925Z,50.50
2019-05-06T16:37:19.017Z,50.00
2019-05-06T16:39:52.432Z,50.20
2019-05-06T16:42:24.786Z,51.00
2019-05-06T16:44:54.881Z,50.80
2019-05-06T16:47:40.202Z,50.70
2019-05-06T16:50:13.637Z,50.70
2019-05-06T16:52:45.407Z,50.40
2019-05-06T16:55:36.806Z,50.30
2019-05-06T16:58:10.227Z,50.50
2019-05-06T17:00:46.334Z,50.70
2019-05-06T17:03:25.045Z,50.10
2019-05-06T17:06:13.925Z,50.00
2019-05-06T17:08:52.840Z,50.10
2019-05-06T17:11:30.275Z,50.60
2019-05-06T17:14:00.513Z,50.20
2019-05-06T17:16:30.583Z,49.90
2019-05-06T17:19:00.653Z,49.70
2019-05-06T17:21:33.816Z,49.90
2019-05-06T17:24:04.237Z,51.00
2019-05-06T17:26:36.317Z,50.40
2019-05-06T17:29:23.797Z,50.50
2019-05-06T17:32:03.190Z,50.40
2019-05-06T17:34:42.545Z,50.20
2019-05-06T17:37:38.392Z,50.90
2019-05-06T17:40:14.102Z,51.50
2019-05-06T17:42:43.618Z,51.10
2019-05-06T17:45:18.807Z,50.70
2019-05-06T17:47:50.551Z,51.00
2019-05-06T17:50:32.650Z,51.40
2019-05-06T17:53:03.402Z,51.60
2019-05-06T17:55:45.034Z,51.70
2019-05-06T17:58:15.209Z,52.00
2019-05-06T18:00:52.239Z,52.40
2019-05-06T18:03:24.917Z,52.50
2019-05-06T18:05:55.110Z,52.70
2019-05-06T18:08:26.171Z,52.80
2019-05-06T18:10:59.421Z,53.00
2019-05-06T18:13:37.666Z,53.30
2019-05-06T18:16:08.694Z,53.80
2019-05-06T18:18:48.863Z,54.00
2019-05-06T18:21:18.974Z,54.30
2019-05-06T18:23:52.288Z,55.10
2019-05-06T18:26:23.107Z,55.90
2019-05-06T18:28:53.251Z,56.30
2019-05-06T18:31:23.581Z,56.70
2019-05-06T18:33:58.666Z,57.70
2019-05-06T18:36:35.874Z,58.30
2019-05-06T18:39:08.714Z,59.20
2019-05-06T18:41:42.071Z,60.40
2019-05-06T18:44:18.191Z,62.20
2019-05-06T18:47:02.854Z,63.30
2019-05-06T18:49:46.946Z,64.00
2019-05-06T18:52:23.346Z,64.70
2019-05-06T18:54:52.874Z,65.50
2019-05-06T18:57:22.772Z,65.70
2019-05-06T18:59:53.432Z,66.20
2019-05-06T19:02:28.118Z,67.40
2019-05-06T19:05:02.420Z,69.20
2019-05-06T19:07:33.387Z,70.70
2019-05-06T19:10:05.606Z,72.30
2019-05-06T19:12:41.319Z,73.80
2019-05-06T19:15:22.667Z,75.20
2019-05-06T19:18:02.270Z,75.00
2019-05-06T19:20:33.966Z,76.40
2019-05-06T19:23:03.616Z,77.60
2019-05-06T19:25:36.534Z,78.60
2019-05-06T19:28:06.022Z,80.40
2019-05-06T19:30:38.090Z,81.80
2019-05-06T19:33:08.459Z,85.30
2019-05-06T19:35:38.563Z,86.90
2019-05-06T19:38:08.738Z,88.80
2019-05-06T19:40:38.874Z,90.10
2019-05-06T19:43:13.686Z,91.00
2019-05-06T19:45:44.702Z,91.30
2019-05-06T19:48:26.819Z,92.40
2019-05-06T19:50:56.878Z,93.20
2019-05-06T19:53:32.135Z,93.90
2019-05-06T19:56:03.776Z,94.80
2019-05-06T19:58:52.810Z,96.00
2019-05-06T20:01:32.654Z,97.80
2019-05-06T20:04:02.639Z,99.00
2019-05-06T20:06:55.230Z,99.90
2019-05-06T20:09:38.570Z,99.90
2019-05-06T20:12:15.586Z,99.90
2019-05-06T20:14:45.654Z,99.90
2019-05-06T20:17:15.727Z,99.90
2019-05-06T20:19:46.777Z,99.90
2019-05-06T20:22:38.938Z,99.90
2019-05-06T20:25:09.504Z,99.90
2019-05-06T20:27:42.010Z,99.90
2019-05-06T20:30:11.922Z,99.90
2019-05-06T20:32:42.570Z,99.90
2019-05-06T20:35:13.891Z,99.90
2019-05-06T20:37:45.974Z,99.90
2019-05-06T20:40:17.536Z,99.90
2019-05-06T20:42:57.530Z,99.90
2019-05-06T20:45:28.783Z,99.90
2019-05-06T20:48:03.251Z,99.90
2019-05-06T20:50:35.590Z,99.90
2019-05-06T20:53:06.287Z,99.90
2019-05-06T20:55:36.695Z,99.90
2019-05-06T20:58:12.206Z,99.90
2019-05-06T21:00:43.519Z,99.90
2019-05-06T21:03:15.535Z,99.90
2019-05-06T21:05:51.388Z,99.90
2019-05-06T21:08:24.478Z,99.90
2019-05-06T21:10:54.570Z,99.90
2019-05-06T21:13:31.939Z,99.90
2019-05-06T21:16:13.035Z,99.90
2019-05-06T21:18:47.862Z,99.90
2019-05-06T21:21:36.794Z,99.90
2019-05-06T21:24:06.874Z,99.90
2019-05-06T21:26:37.909Z,99.90
2019-05-06T21:29:23.201Z,99.90
2019-05-06T21:31:54.302Z,99.90
2019-05-06T21:34:26.907Z,99.90
2019-05-06T21:36:58.383Z,99.90
2019-05-06T21:39:43.510Z,99.90
2019-05-06T21:42:15.698Z,99.90
2019-05-06T21:44:48.746Z,99.90
2019-05-06T21:47:32.814Z,99.90
2019-05-06T21:50:12.050Z,99.90
2019-05-06T21:52:43.259Z,99.90
2019-05-06T21:55:16.239Z,99.90
2019-05-06T21:57:53.078Z,99.90
2019-05-06T22:00:25.278Z,99.90
2019-05-06T22:02:55.334Z,99.90
2019-05-06T22:05:34.574Z,99.90
2019-05-06T22:08:09.810Z,99.90
2019-05-06T22:10:42.584Z,99.90
2019-05-06T22:13:26.260Z,99.90
2019-05-06T22:16:02.366Z,99.90
2019-05-06T22:18:55.326Z,99.90
2019-05-06T22:21:25.918Z,99.90
2019-05-06T22:24:04.182Z,99.90
2019-05-06T22:26:34.578Z,99.90
2019-05-06T22:29:19.391Z,99.90
2019-05-06T22:31:49.513Z,99.90
2019-05-06T22:34:42.471Z,99.90
2019-05-06T22:37:13.674Z,99.90
2019-05-06T22:40:07.462Z,99.90
2019-05-06T22:42:39.515Z,99.90
2019-05-06T22:45:12.508Z,99.90
2019-05-06T22:47:54.694Z,99.90
2019-05-06T22:50:32.990Z,99.90
2019-05-06T22:53:03.259Z,99.90
2019-05-06T22:55:39.598Z,99.90
2019-05-06T22:58:12.910Z,99.90
2019-05-06T23:00:44.610Z,99.90
2019-05-06T23:03:17.351Z,99.90
2019-05-06T23:05:54.202Z,99.90
2019-05-06T23:08:32.490Z,99.90
2019-05-06T23:11:02.424Z,99.90
2019-05-06T23:13:34.002Z,99.90
2019-05-06T23:16:15.066Z,99.90
2019-05-06T23:18:45.130Z,99.90
2019-05-06T23:21:15.207Z,99.90
2019-05-06T23:24:02.133Z,99.90
2019-05-06T23:26:32.366Z,99.90
2019-05-06T23:29:02.635Z,99.90
2019-05-06T23:31:33.349Z,99.90
2019-05-06T23:34:15.494Z,99.90
2019-05-06T23:37:02.871Z,99.90
2019-05-06T23:40:29.368Z,99.90
2019-05-06T23:43:58.886Z,99.90
2019-05-06T23:47:23.926Z,99.90
2019-05-06T23:50:51.851Z,99.90
2019-05-06T23:54:16.906Z,99.90
2019-05-06T23:56:55.286Z,99.90
2019-05-06T23:59:25.458Z,99.90
